Time;durP1;ratioP1;P1;durP2;ratioP2;P2;SDS_P1;SDS_P2;PMS_P1;PMS_P2;Temp;Humidity;BMP_temperature;BMP_pressure;BME280_temperature;BME280_humidity;BME280_pressure;Samples;Min_cycle;Max_cycle;Signal;HPM_P1;HPM_P2
2024/02/13 00:00:33;;;;;;;13.07;6.83;;;22.20;58.70;;;;;;4997776;28;20471;-86
2024/02/13 00:03:00;;;;;;;13.30;6.27;;;22.20;58.60;;;;;;5015380;28;20473;-86
2024/02/13 00:05:28;;;;;;;12.23;5.93;;;22.20;58.60;;;;;;5015121;28;20447;-87
2024/02/13 00:08:00;;;;;;;12.70;6.70;;;22.10;58.60;;;;;;5014891;28;21009;-87
2024/02/13 00:10:27;;;;;;;11.50;6.80;;;22.10;58.60;;;;;;5015190;28;20577;-86
2024/02/13 00:12:54;;;;;;;12.77;6.63;;;22.10;58.60;;;;;;5015386;28;20469;-87
2024/02/13 00:15:21;;;;;;;9.60;5.43;;;22.10;58.60;;;;;;5015109;28;20484;-86
2024/02/13 00:17:48;;;;;;;11.73;6.63;;;22.10;58.60;;;;;;5014793;28;21003;-86
2024/02/13 00:20:15;;;;;;;10.10;6.63;;;22.10;58.60;;;;;;5014893;28;20994;-86
2024/02/13 00:22:45;;;;;;;12.80;6.67;;;22.10;58.60;;;;;;5014739;28;20450;-87
2024/02/13 00:25:12;;;;;;;11.13;5.60;;;22.10;58.70;;;;;;5015123;28;20482;-87
2024/02/13 00:27:39;;;;;;;11.73;6.50;;;22.10;58.70;;;;;;5014826;28;20478;-87
2024/02/13 00:30:09;;;;;;;10.07;5.87;;;22.10;58.70;;;;;;5014553;28;20463;-87
2024/02/13 00:32:37;;;;;;;11.97;6.27;;;22.00;58.60;;;;;;5014659;28;20896;-87
2024/02/13 00:35:04;;;;;;;10.43;5.90;;;22.00;58.60;;;;;;5014507;28;20443;-87
2024/02/13 00:37:32;;;;;;;13.57;6.53;;;22.00;58.60;;;;;;5014468;28;20486;-87
2024/02/13 00:40:02;;;;;;;10.90;6.10;;;22.00;58.70;;;;;;5014541;28;20808;-87
2024/02/13 00:42:30;;;;;;;9.97;5.47;;;22.10;58.70;;;;;;5014274;28;20493;-87
2024/02/13 00:44:58;;;;;;;9.33;5.40;;;22.00;58.60;;;;;;5014857;28;20787;-87
2024/02/13 00:47:25;;;;;;;10.73;5.60;;;22.00;58.60;;;;;;5014688;28;20598;-86
2024/02/13 00:49:51;;;;;;;10.37;5.60;;;22.00;58.70;;;;;;5014277;28;20470;-87
2024/02/13 00:52:18;;;;;;;10.27;5.40;;;22.00;58.60;;;;;;5014505;28;20435;-86
2024/02/13 00:54:45;;;;;;;9.00;5.20;;;22.00;58.60;;;;;;5014158;28;20439;-88
2024/02/13 00:57:13;;;;;;;10.00;5.13;;;22.00;58.70;;;;;;5013959;28;20561;-87
2024/02/13 00:59:42;;;;;;;10.40;5.97;;;22.00;58.70;;;;;;5013990;28;20835;-87
2024/02/13 01:02:09;;;;;;;9.37;5.67;;;22.00;58.70;;;;;;5013683;28;20439;-87
2024/02/13 01:04:36;;;;;;;9.30;5.50;;;22.00;58.70;;;;;;5014261;28;20442;-86
2024/02/13 01:07:04;;;;;;;8.80;4.50;;;21.90;58.70;;;;;;5013971;28;20534;-86
2024/02/13 01:09:30;;;;;;;7.27;4.77;;;21.90;58.70;;;;;;5014280;28;20470;-86
2024/02/13 01:11:57;;;;;;;8.93;5.30;;;21.90;58.70;;;;;;5013825;28;20451;-87
2024/02/13 01:14:26;;;;;;;8.67;4.87;;;21.90;58.70;;;;;;5014034;28;20881;-87
2024/02/13 01:16:52;;;;;;;10.37;4.93;;;21.90;58.70;;;;;;5013993;28;20824;-87
2024/02/13 01:19:20;;;;;;;8.83;4.27;;;21.90;58.60;;;;;;5013832;28;20443;-85
2024/02/13 01:21:47;;;;;;;7.07;4.50;;;21.90;58.60;;;;;;5014512;28;20478;-86
2024/02/13 01:24:14;;;;;;;8.13;4.67;;;21.90;58.60;;;;;;5013727;28;20474;-86
2024/02/13 01:26:43;;;;;;;8.40;4.53;;;22.00;58.70;;;;;;5013656;28;20451;-86
2024/02/13 01:29:11;;;;;;;9.07;4.67;;;21.90;58.60;;;;;;5013653;28;20482;-86
2024/02/13 01:31:40;;;;;;;7.47;4.40;;;21.90;58.60;;;;;;5013995;28;20443;-86
2024/02/13 01:34:07;;;;;;;8.57;4.80;;;21.90;58.60;;;;;;5014049;28;20551;-88
2024/02/13 01:36:35;;;;;;;9.63;4.57;;;22.00;58.60;;;;;;4996320;28;20455;-85
2024/02/13 01:39:03;;;;;;;7.90;4.40;;;22.00;58.60;;;;;;5013690;28;21307;-85
2024/02/13 01:41:30;;;;;;;6.47;4.03;;;22.00;58.50;;;;;;5013572;28;20483;-85
2024/02/13 01:43:57;;;;;;;7.90;4.70;;;22.00;58.50;;;;;;5013646;28;20470;-87
2024/02/13 01:46:26;;;;;;;9.00;5.13;;;22.00;58.50;;;;;;4996096;28;20450;-87
2024/02/13 01:48:58;;;;;;;7.30;4.03;;;22.00;58.40;;;;;;4996189;28;20522;-87
2024/02/13 01:51:27;;;;;;;7.83;4.53;;;22.00;58.50;;;;;;4996423;28;20450;-87
2024/02/13 01:53:54;;;;;;;6.23;3.40;;;22.00;58.40;;;;;;5013950;28;20447;-85
2024/02/13 01:56:24;;;;;;;6.10;3.43;;;22.00;58.40;;;;;;5013755;28;20441;-86
2024/02/13 01:58:52;;;;;;;7.50;4.50;;;22.00;58.40;;;;;;5013532;28;20614;-86
2024/02/13 02:01:18;;;;;;;6.10;3.53;;;22.00;58.30;;;;;;5013569;28;20775;-86
2024/02/13 02:03:47;;;;;;;8.27;3.93;;;22.00;58.30;;;;;;5013869;28;20533;-86
2024/02/13 02:06:16;;;;;;;8.50;4.13;;;22.00;58.30;;;;;;5013961;28;20457;-86
2024/02/13 02:08:44;;;;;;;6.77;4.50;;;22.00;58.30;;;;;;5013978;28;20498;-85
2024/02/13 02:11:12;;;;;;;6.20;3.70;;;22.10;58.30;;;;;;5014174;28;20462;-85
2024/02/13 02:13:39;;;;;;;7.90;4.20;;;21.90;58.20;;;;;;5017149;28;20449;-86
2024/02/13 02:16:07;;;;;;;6.10;3.53;;;22.10;58.30;;;;;;5017801;28;20443;-85
2024/02/13 02:18:33;;;;;;;5.80;4.00;;;22.10;58.30;;;;;;5017565;28;20816;-86
2024/02/13 02:21:00;;;;;;;7.13;3.90;;;22.10;58.30;;;;;;5017776;28;20446;-85
2024/02/13 02:23:29;;;;;;;6.87;3.80;;;22.10;58.30;;;;;;5017926;28;20454;-86
2024/02/13 02:25:58;;;;;;;6.40;3.60;;;22.10;58.20;;;;;;5019141;28;20450;-86
2024/02/13 02:28:25;;;;;;;7.80;4.27;;;22.10;58.30;;;;;;5026771;28;20497;-87
2024/02/13 02:30:52;;;;;;;7.63;4.70;;;22.10;58.10;;;;;;5040759;28;20451;-86
2024/02/13 02:33:19;;;;;;;4.57;3.10;;;22.10;58.20;;;;;;5038967;28;20512;-85
2024/02/13 02:35:48;;;;;;;7.10;3.27;;;22.10;58.10;;;;;;5017051;28;20474;-86
2024/02/13 02:38:16;;;;;;;5.77;3.80;;;22.10;58.10;;;;;;5016903;28;20439;-86
2024/02/13 02:40:43;;;;;;;9.10;4.20;;;22.10;58.10;;;;;;5016793;28;20952;-86
2024/02/13 02:43:11;;;;;;;5.70;3.60;;;22.10;58.10;;;;;;5016670;28;20473;-87
2024/02/13 02:45:39;;;;;;;6.77;4.27;;;22.10;58.10;;;;;;5018350;28;21022;-88
2024/02/13 02:48:07;;;;;;;5.60;3.33;;;22.10;58.00;;;;;;5016386;28;20483;-86
2024/02/13 02:50:35;;;;;;;7.60;3.67;;;22.10;58.00;;;;;;5016527;28;20448;-86
2024/02/13 02:53:02;;;;;;;6.43;3.40;;;22.10;58.00;;;;;;5016765;28;20530;-86
2024/02/13 02:55:29;;;;;;;7.10;3.47;;;22.10;58.00;;;;;;5016304;28;20443;-86
2024/02/13 02:57:56;;;;;;;6.17;3.47;;;22.10;58.00;;;;;;5016486;28;20455;-86
2024/02/13 03:00:25;;;;;;;4.80;2.90;;;22.30;58.20;;;;;;4998651;28;20533;-88
2024/02/13 03:02:52;;;;;;;5.57;3.20;;;22.10;58.00;;;;;;5016539;28;20447;-86
2024/02/13 03:05:19;;;;;;;6.03;3.20;;;22.20;58.10;;;;;;5016124;28;20454;-86
2024/02/13 03:07:46;;;;;;;3.73;3.10;;;22.20;58.00;;;;;;5016256;28;20582;-85
2024/02/13 03:10:13;;;;;;;5.87;3.40;;;22.10;58.00;;;;;;5016393;28;20446;-85
2024/02/13 03:12:40;;;;;;;6.53;3.90;;;22.20;58.00;;;;;;5016031;28;21001;-87
2024/02/13 03:15:08;;;;;;;5.23;3.10;;;22.20;58.00;;;;;;5016350;28;20538;-89
2024/02/13 03:17:37;;;;;;;4.17;2.43;;;22.20;58.00;;;;;;5016088;28;20479;-86
2024/02/13 03:20:04;;;;;;;6.07;3.33;;;22.10;57.90;;;;;;5016072;28;20569;-86
2024/02/13 03:22:36;;;;;;;6.43;2.97;;;22.20;57.90;;;;;;5020196;28;20513;-86
2024/02/13 03:25:04;;;;;;;4.43;2.77;;;22.10;57.90;;;;;;5020797;28;20446;-85
2024/02/13 03:27:31;;;;;;;4.60;3.37;;;22.20;57.90;;;;;;5024284;28;20942;-82
2024/02/13 03:29:57;;;;;;;3.87;2.97;;;22.20;57.90;;;;;;5019447;28;20463;-86
2024/02/13 03:32:25;;;;;;;5.00;2.93;;;22.20;57.90;;;;;;5015911;28;20447;-86
2024/02/13 03:34:54;;;;;;;5.13;3.27;;;22.20;57.90;;;;;;5012346;28;20459;-86
2024/02/13 03:37:20;;;;;;;3.23;2.50;;;22.20;57.90;;;;;;5016848;28;20450;-86
2024/02/13 03:39:47;;;;;;;5.53;3.10;;;22.20;57.90;;;;;;5015613;28;20864;-86
2024/02/13 03:42:15;;;;;;;6.73;3.47;;;22.20;57.90;;;;;;5015586;28;20485;-86
2024/02/13 03:44:42;;;;;;;5.83;2.97;;;22.20;57.80;;;;;;5015470;28;20858;-86
2024/02/13 03:47:09;;;;;;;6.60;3.43;;;22.20;57.80;;;;;;5015827;28;20488;-86
2024/02/13 03:49:36;;;;;;;4.57;2.90;;;22.20;57.80;;;;;;5015455;28;20486;-86
2024/02/13 03:52:04;;;;;;;4.47;2.50;;;22.20;57.80;;;;;;5015202;28;20443;-86
2024/02/13 03:54:31;;;;;;;4.23;2.17;;;22.20;57.80;;;;;;5015253;28;20935;-86
2024/02/13 03:57:00;;;;;;;5.37;3.17;;;22.20;57.80;;;;;;5015121;28;20874;-86
2024/02/13 03:59:27;;;;;;;3.17;2.47;;;22.20;57.80;;;;;;5015271;28;20517;-86
2024/02/13 04:01:54;;;;;;;4.93;3.20;;;22.20;57.80;;;;;;5015236;28;20874;-86
2024/02/13 04:04:21;;;;;;;4.37;2.50;;;22.20;57.70;;;;;;5015100;28;20445;-89
2024/02/13 04:06:48;;;;;;;3.70;3.03;;;22.20;57.70;;;;;;5015019;28;20478;-86
2024/02/13 04:09:16;;;;;;;5.07;2.60;;;22.20;57.70;;;;;;5014889;28;20487;-86
2024/02/13 04:11:44;;;;;;;4.13;2.63;;;22.30;57.70;;;;;;5017461;28;20483;-85
2024/02/13 04:14:12;;;;;;;3.60;2.50;;;22.20;57.60;;;;;;5014659;28;20960;-85
2024/02/13 04:16:40;;;;;;;3.17;2.60;;;22.20;57.70;;;;;;5014975;28;20533;-86
2024/02/13 04:19:07;;;;;;;3.97;2.53;;;22.20;57.70;;;;;;5015332;28;20505;-86
2024/02/13 04:21:34;;;;;;;5.40;2.50;;;22.20;57.60;;;;;;5015123;28;20435;-86
2024/02/13 04:24:03;;;;;;;5.30;2.50;;;22.20;57.70;;;;;;5014949;28;20439;-86
2024/02/13 04:26:31;;;;;;;3.93;2.20;;;22.20;57.60;;;;;;5014998;28;20443;-86
2024/02/13 04:28:57;;;;;;;4.60;2.77;;;22.20;57.60;;;;;;5014510;28;20490;-86
2024/02/13 04:31:24;;;;;;;4.30;2.80;;;22.20;57.60;;;;;;5014934;28;20439;-86
2024/02/13 04:33:51;;;;;;;4.87;2.70;;;22.20;57.60;;;;;;5014651;28;20454;-86
2024/02/13 04:36:19;;;;;;;4.03;2.53;;;22.20;57.60;;;;;;5013640;28;20455;-85
2024/02/13 04:38:45;;;;;;;3.10;2.30;;;22.20;57.60;;;;;;5017819;28;20534;-85
2024/02/13 04:41:13;;;;;;;3.53;2.33;;;22.20;57.60;;;;;;5014627;28;20482;-85
2024/02/13 04:43:43;;;;;;;2.90;2.10;;;22.20;57.60;;;;;;5014657;28;20432;-85
2024/02/13 04:46:10;;;;;;;2.63;1.87;;;22.20;57.60;;;;;;5014269;28;20439;-85
2024/02/13 04:48:37;;;;;;;5.07;2.70;;;22.20;57.60;;;;;;5014293;28;20580;-86
2024/02/13 04:51:04;;;;;;;4.23;2.00;;;22.20;57.60;;;;;;5014657;28;20443;-85
2024/02/13 04:53:31;;;;;;;3.50;2.70;;;22.20;57.50;;;;;;5014618;28;21023;-85
2024/02/13 04:55:58;;;;;;;3.33;2.40;;;22.20;58.10;;;;;;5014548;28;20445;-87
2024/02/13 04:58:30;;;;;;;2.60;1.90;;;22.20;57.50;;;;;;5014677;28;20439;-87
2024/02/13 05:01:04;;;;;;;3.57;2.37;;;22.30;57.50;;;;;;5014178;28;20443;-89
2024/02/13 05:03:42;;;;;;;4.10;2.53;;;22.30;57.50;;;;;;5014441;28;20837;-87
2024/02/13 05:08:55;;;;;;;3.23;2.23;;;22.30;57.40;;;;;;5014293;28;20823;-88
2024/02/13 05:11:22;;;;;;;3.10;1.97;;;22.30;57.50;;;;;;5014400;28;20447;-89
2024/02/13 05:13:49;;;;;;;4.30;2.40;;;22.30;57.50;;;;;;5017839;28;20453;-87
2024/02/13 05:16:18;;;;;;;3.23;2.10;;;22.30;57.40;;;;;;5019016;28;20935;-87
2024/02/13 05:18:45;;;;;;;4.47;2.30;;;22.30;57.30;;;;;;4998824;28;20447;-86
2024/02/13 05:21:13;;;;;;;3.27;1.90;;;22.30;57.30;;;;;;5017587;28;20454;-85
2024/02/13 05:23:41;;;;;;;4.27;2.60;;;22.40;57.30;;;;;;5017365;28;20510;-85
2024/02/13 05:26:08;;;;;;;4.60;2.67;;;22.40;57.30;;;;;;5018554;28;20518;-84
2024/02/13 05:28:36;;;;;;;3.97;2.30;;;22.40;57.30;;;;;;5016683;28;20470;-85
2024/02/13 05:31:04;;;;;;;2.53;2.00;;;22.40;57.30;;;;;;5017228;28;20451;-85
2024/02/13 05:33:32;;;;;;;3.40;1.80;;;22.40;57.30;;;;;;5015407;28;20478;-85
2024/02/13 05:36:01;;;;;;;2.97;2.03;;;22.40;57.30;;;;;;5013826;28;20823;-85
2024/02/13 05:38:28;;;;;;;11.40;6.97;;;22.40;57.30;;;;;;5013913;28;20533;-86
2024/02/13 05:40:55;;;;;;;17.53;8.07;;;22.40;57.30;;;;;;5014011;28;20521;-84
2024/02/13 05:43:22;;;;;;;5.60;2.87;;;22.40;57.50;;;;;;5014117;28;20473;-88
2024/02/13 05:45:49;;;;;;;15.67;7.67;;;22.40;57.50;;;;;;4997949;28;20441;-85
2024/02/13 05:48:18;;;;;;;5.40;3.00;;;22.30;57.50;;;;;;5035593;28;20454;-85
2024/02/13 05:50:46;;;;;;;5.87;3.13;;;22.40;57.70;;;;;;5038794;28;20454;-86
2024/02/13 05:53:13;;;;;;;15.00;5.80;;;22.40;57.60;;;;;;5027444;28;20545;-89
2024/02/13 05:55:41;;;;;;;18.80;7.33;;;22.40;57.70;;;;;;5018075;28;20614;-87
2024/02/13 05:58:07;;;;;;;16.13;7.97;;;22.40;57.70;;;;;;5017959;28;20455;-88
2024/02/13 06:00:34;;;;;;;15.50;7.10;;;22.40;57.90;;;;;;5017761;28;20454;-89
2024/02/13 06:03:05;;;;;;;12.47;6.90;;;22.40;57.90;;;;;;5000207;28;20443;-87
2024/02/13 06:05:31;;;;;;;10.83;5.40;;;22.40;57.80;;;;;;5017356;28;20509;-85
2024/02/13 06:08:00;;;;;;;13.33;5.43;;;22.40;57.90;;;;;;5017365;28;20813;-85
2024/02/13 06:10:26;;;;;;;11.70;5.97;;;22.50;57.90;;;;;;5017123;28;20486;-84
2024/02/13 06:12:55;;;;;;;8.07;4.37;;;22.50;57.80;;;;;;5017169;28;20446;-84
2024/02/13 06:15:22;;;;;;;9.97;4.13;;;22.50;57.80;;;;;;5017079;28;21061;-85
2024/02/13 06:17:49;;;;;;;10.40;4.50;;;22.50;58.40;;;;;;5017146;28;20538;-85
2024/02/13 06:20:17;;;;;;;9.50;4.77;;;22.60;58.00;;;;;;5016849;28;20442;-85
2024/02/13 06:22:44;;;;;;;11.33;5.27;;;22.60;57.90;;;;;;5017052;28;20450;-85
2024/02/13 06:25:13;;;;;;;6.63;3.83;;;22.50;57.90;;;;;;5017130;28;20449;-85
2024/02/13 06:27:40;;;;;;;10.17;4.57;;;22.50;57.90;;;;;;5016771;28;20439;-85
2024/02/13 06:30:08;;;;;;;7.67;3.83;;;22.60;58.00;;;;;;5016966;28;20589;-85
2024/02/13 06:32:35;;;;;;;9.13;4.17;;;22.60;58.10;;;;;;5016933;28;20450;-86
2024/02/13 06:35:01;;;;;;;8.27;3.63;;;22.60;58.10;;;;;;5016592;28;20446;-85
2024/02/13 06:37:28;;;;;;;9.50;4.80;;;22.60;58.00;;;;;;5016698;28;20437;-85
2024/02/13 06:39:55;;;;;;;7.50;4.03;;;22.60;58.00;;;;;;5016707;28;20445;-85
2024/02/13 06:42:23;;;;;;;9.50;4.10;;;22.60;58.00;;;;;;5016618;28;20473;-85
2024/02/13 06:44:50;;;;;;;6.10;3.57;;;22.60;57.90;;;;;;5016762;28;20781;-85
2024/02/13 06:47:16;;;;;;;8.73;4.07;;;22.60;57.50;;;;;;4999060;28;20451;-86
2024/02/13 06:49:43;;;;;;;7.07;3.43;;;22.60;58.00;;;;;;5016113;28;20497;-89
2024/02/13 06:52:10;;;;;;;8.43;4.73;;;22.60;57.80;;;;;;5016375;28;20931;-84
2024/02/13 06:54:37;;;;;;;8.17;3.40;;;22.70;57.90;;;;;;5016634;28;20812;-85
2024/02/13 06:57:04;;;;;;;8.93;3.20;;;22.60;57.80;;;;;;5016221;28;20934;-86
2024/02/13 06:59:32;;;;;;;7.20;3.37;;;22.60;57.80;;;;;;5015162;28;20461;-86
2024/02/13 07:01:59;;;;;;;12.17;4.43;;;22.60;58.00;;;;;;5016222;28;20447;-85
2024/02/13 07:04:26;;;;;;;6.00;3.43;;;22.70;57.90;;;;;;5016132;28;20493;-85
2024/02/13 07:06:56;;;;;;;5.63;3.47;;;22.60;57.90;;;;;;5016250;28;20961;-85
2024/02/13 09:23:47;;;;;;;2.53;1.60;;;23.50;57.50;;;;;;5010763;28;20473;-85
2024/02/13 09:26:14;;;;;;;4.53;2.37;;;23.50;57.40;;;;;;5014491;28;20443;-88
2024/02/13 09:28:41;;;;;;;2.87;1.90;;;23.60;57.30;;;;;;5004690;28;20469;-85
2024/02/13 09:31:08;;;;;;;3.83;1.67;;;23.60;57.20;;;;;;5013740;28;20542;-87
2024/02/13 09:33:35;;;;;;;5.33;1.83;;;23.70;57.20;;;;;;5013722;28;20436;-86
2024/02/13 09:36:05;;;;;;;2.80;2.10;;;23.80;57.10;;;;;;5004282;28;20462;-86
2024/02/13 09:38:32;;;;;;;4.57;1.80;;;23.80;57.10;;;;;;4995276;28;20933;-86
2024/02/13 09:41:00;;;;;;;3.30;1.73;;;23.90;57.70;;;;;;4995135;28;20476;-89
2024/02/13 09:43:27;;;;;;;3.30;1.90;;;24.00;57.10;;;;;;4994667;28;20458;-87
2024/02/13 09:45:55;;;;;;;3.60;1.87;;;24.10;56.90;;;;;;4994719;28;20486;-89
2024/02/13 09:48:24;;;;;;;3.07;1.60;;;24.40;56.70;;;;;;4994794;28;20443;-87
2024/02/13 09:50:51;;;;;;;2.63;1.37;;;24.60;56.40;;;;;;4994845;28;20851;-94
2024/02/13 09:53:24;;;;;;;4.77;2.07;;;24.80;56.20;;;;;;4999289;28;20881;-85
2024/02/13 09:55:53;;;;;;;2.47;1.50;;;25.10;56.00;;;;;;5013959;28;20428;-85
2024/02/13 09:58:21;;;;;;;3.63;2.10;;;25.40;55.70;;;;;;5013896;28;20966;-87
2024/02/13 10:00:48;;;;;;;2.53;1.23;;;25.60;55.30;;;;;;5013978;28;20449;-89
2024/02/13 10:03:16;;;;;;;2.20;1.20;;;25.80;55.10;;;;;;5014092;28;20461;-89
2024/02/13 10:05:43;;;;;;;3.73;1.50;;;25.90;54.90;;;;;;5014532;28;20991;-90
2024/02/13 10:08:11;;;;;;;4.87;1.70;;;26.20;54.70;;;;;;5014503;28;20949;-92
2024/02/13 10:10:38;;;;;;;2.63;1.50;;;26.40;54.50;;;;;;5014096;28;20545;-90
2024/02/13 10:13:06;;;;;;;2.87;1.73;;;26.60;54.20;;;;;;5014422;28;20453;-85
2024/02/13 10:15:43;;;;;;;3.37;1.73;;;26.80;54.00;;;;;;5014687;28;20937;-91
2024/02/13 10:18:11;;;;;;;1.97;1.37;;;27.00;53.70;;;;;;5009244;28;20474;-81
2024/02/13 10:20:38;;;;;;;4.73;1.40;;;27.00;53.60;;;;;;5012748;28;20478;-89
2024/02/13 10:23:06;;;;;;;2.40;1.30;;;27.00;53.70;;;;;;5011919;28;20478;-80
2024/02/13 10:25:33;;;;;;;3.20;1.97;;;27.00;53.60;;;;;;5012583;28;20443;-87
2024/02/13 10:28:01;;;;;;;2.13;1.27;;;27.10;53.60;;;;;;5012828;28;20471;-81
2024/02/13 10:30:30;;;;;;;2.60;1.40;;;26.90;53.70;;;;;;5012683;28;20486;-85
2024/02/13 10:33:00;;;;;;;3.80;1.60;;;26.50;54.10;;;;;;5014221;28;20435;-82
2024/02/13 10:35:29;;;;;;;2.37;1.30;;;26.30;54.60;;;;;;5016938;28;20442;-82
2024/02/13 10:37:56;;;;;;;3.13;1.87;;;26.00;54.90;;;;;;5016555;28;20485;-81
2024/02/13 10:40:25;;;;;;;2.23;1.47;;;25.80;55.30;;;;;;5015994;28;20439;-91
2024/02/13 10:42:54;;;;;;;2.20;1.50;;;25.70;55.60;;;;;;5016701;28;20447;-81
2024/02/13 10:45:28;;;;;;;3.03;1.40;;;25.30;55.90;;;;;;5017287;28;20445;-80
2024/02/13 10:48:03;;;;;;;2.23;1.43;;;25.10;56.20;;;;;;5002609;28;20812;-84
2024/02/13 10:50:31;;;;;;;3.77;1.77;;;24.90;56.50;;;;;;4997142;28;20486;-87
2024/02/13 10:52:59;;;;;;;2.83;1.40;;;24.80;56.70;;;;;;5012740;28;20445;-81
2024/02/13 10:55:27;;;;;;;2.50;1.23;;;24.70;56.90;;;;;;4996869;28;20485;-90
2024/02/13 10:57:56;;;;;;;2.37;1.50;;;24.60;57.10;;;;;;5005625;28;20446;-82
2024/02/13 11:00:25;;;;;;;2.40;1.47;;;24.50;57.20;;;;;;5016810;28;20455;-83
2024/02/13 11:02:52;;;;;;;2.23;1.50;;;24.50;57.30;;;;;;5016400;28;20446;-82
2024/02/13 11:05:23;;;;;;;2.23;1.17;;;24.40;57.50;;;;;;5015999;28;20446;-87
2024/02/13 11:07:50;;;;;;;2.40;1.20;;;24.40;57.60;;;;;;5012200;28;20447;-83
2024/02/13 11:10:17;;;;;;;2.13;1.30;;;24.40;57.70;;;;;;5014428;28;20493;-83
2024/02/13 11:12:45;;;;;;;2.30;1.50;;;24.40;57.70;;;;;;5015421;28;20891;-83
2024/02/13 11:15:16;;;;;;;1.80;1.30;;;24.30;57.80;;;;;;5014705;28;20554;-83
2024/02/13 11:17:46;;;;;;;2.73;1.23;;;24.30;57.90;;;;;;5015645;28;20473;-83
2024/02/13 11:20:15;;;;;;;3.00;1.50;;;24.30;57.90;;;;;;5016740;28;20435;-90
2024/02/13 11:22:51;;;;;;;2.60;1.40;;;24.20;57.90;;;;;;5015969;28;20438;-82
2024/02/13 11:25:18;;;;;;;4.77;1.70;;;24.30;57.60;;;;;;5016353;28;20918;-82
2024/02/13 11:27:47;;;;;;;2.60;1.30;;;24.30;57.60;;;;;;5015993;28;20432;-82
2024/02/13 11:30:23;;;;;;;3.13;1.40;;;24.20;57.50;;;;;;5015644;28;20491;-82
2024/02/13 11:32:55;;;;;;;4.23;1.60;;;24.20;57.50;;;;;;5014983;28;20451;-82
2024/02/13 11:35:23;;;;;;;3.17;1.33;;;24.10;57.70;;;;;;5015172;28;20512;-83
2024/02/13 11:37:51;;;;;;;3.90;1.20;;;24.10;57.70;;;;;;5014945;28;20447;-82
2024/02/13 11:40:21;;;;;;;4.87;1.43;;;24.10;58.30;;;;;;5015008;28;20549;-82
2024/02/13 11:42:48;;;;;;;2.53;1.37;;;24.10;57.80;;;;;;5015422;28;20841;-82
2024/02/13 11:45:21;;;;;;;3.57;1.87;;;24.00;57.80;;;;;;5014512;28;20447;-82
2024/02/13 11:47:49;;;;;;;2.60;1.50;;;24.00;57.70;;;;;;5014776;28;20441;-82
2024/02/13 11:50:17;;;;;;;2.67;1.33;;;24.00;57.80;;;;;;5015253;28;20498;-82
2024/02/13 11:52:44;;;;;;;2.70;1.10;;;24.00;57.90;;;;;;5015489;28;20443;-81
2024/02/13 11:55:13;;;;;;;4.90;1.20;;;24.00;57.80;;;;;;5015381;28;20486;-82
2024/02/13 11:57:39;;;;;;;2.83;1.00;;;24.00;57.90;;;;;;5015653;28;20436;-82
2024/02/13 12:00:12;;;;;;;2.10;1.00;;;23.90;57.90;;;;;;5015784;28;20443;-82
2024/02/13 12:02:39;;;;;;;1.93;1.10;;;23.90;57.90;;;;;;5015494;28;20474;-81
2024/02/13 12:05:10;;;;;;;2.13;1.23;;;23.90;57.90;;;;;;5007396;28;20451;-83
2024/02/13 12:07:37;;;;;;;2.60;1.30;;;23.90;58.00;;;;;;5017060;28;20475;-81
2024/02/13 12:10:06;;;;;;;2.07;1.10;;;23.90;58.00;;;;;;5018638;28;21011;-82
2024/02/13 12:12:35;;;;;;;5.73;1.30;;;23.80;58.00;;;;;;5014847;28;20443;-81
2024/02/13 12:15:03;;;;;;;2.70;1.20;;;24.00;58.20;;;;;;5015997;28;20922;-81
2024/02/13 12:17:32;;;;;;;5.40;1.37;;;23.80;58.20;;;;;;5017793;28;20527;-81
2024/02/13 12:20:00;;;;;;;2.93;1.10;;;23.80;58.20;;;;;;5054896;28;20433;-81
2024/02/13 12:22:28;;;;;;;6.20;1.10;;;23.80;58.20;;;;;;5054727;28;20541;-81
2024/02/13 12:24:56;;;;;;;2.43;1.07;;;23.80;58.30;;;;;;5061468;28;20449;-81
2024/02/13 12:27:24;;;;;;;2.47;1.07;;;23.80;58.90;;;;;;5059682;28;20441;-81
2024/02/13 12:29:52;;;;;;;4.33;1.60;;;23.80;58.30;;;;;;5055244;28;20445;-78
2024/02/13 12:32:21;;;;;;;3.40;1.17;;;23.80;58.30;;;;;;5052633;28;20445;-79
2024/02/13 12:34:49;;;;;;;4.20;1.20;;;23.80;58.30;;;;;;5052633;28;20445;-79
2024/02/13 12:37:16;;;;;;;3.63;1.40;;;23.70;57.50;;;;;;5038977;28;20465;-81
2024/02/13 12:39:43;;;;;;;5.33;1.53;;;23.80;57.60;;;;;;5034275;28;20446;-82
2024/02/13 12:42:12;;;;;;;2.93;1.57;;;23.80;58.10;;;;;;5034123;28;20953;-82
2024/02/13 12:44:40;;;;;;;4.80;1.47;;;23.70;58.00;;;;;;5034312;28;20442;-82
2024/02/13 12:47:13;;;;;;;5.17;1.37;;;23.70;58.10;;;;;;5035092;28;20473;-89
2024/02/13 12:49:42;;;;;;;3.23;1.10;;;23.60;58.10;;;;;;5037392;28;20439;-92
2024/02/13 12:52:16;;;;;;;3.50;1.50;;;23.60;58.20;;;;;;5037915;28;20514;-81
2024/02/13 12:54:45;;;;;;;2.20;1.27;;;23.60;58.20;;;;;;5035797;28;20438;-83
2024/02/13 12:57:15;;;;;;;2.40;1.00;;;23.60;58.30;;;;;;5036829;28;20442;-82
2024/02/13 12:59:43;;;;;;;1.90;1.00;;;23.60;58.30;;;;;;5034706;28;20462;-82
2024/02/13 13:02:17;;;;;;;4.53;1.10;;;23.60;58.40;;;;;;5036757;28;20540;-82
2024/02/13 13:04:47;;;;;;;2.77;1.00;;;23.50;58.30;;;;;;5037739;28;20441;-80
2024/02/13 13:07:14;;;;;;;2.27;1.10;;;23.50;58.30;;;;;;5036564;28;20442;-81
2024/02/13 13:09:42;;;;;;;1.90;1.07;;;23.50;58.30;;;;;;5035567;28;20448;-81
2024/02/13 13:12:10;;;;;;;3.23;1.03;;;23.50;58.30;;;;;;5035571;28;20490;-82
2024/02/13 13:14:42;;;;;;;2.07;1.07;;;23.50;58.30;;;;;;5036583;28;20595;-82
2024/02/13 13:17:09;;;;;;;4.47;1.20;;;23.50;58.20;;;;;;5035812;28;20485;-81
2024/02/13 13:19:38;;;;;;;2.33;1.00;;;23.50;58.20;;;;;;5016843;28;20879;-80
2024/02/13 13:22:05;;;;;;;5.93;1.10;;;23.50;58.20;;;;;;5016162;28;20446;-82
2024/02/13 13:24:34;;;;;;;4.00;1.10;;;23.50;58.30;;;;;;5016498;28;20935;-80
2024/02/13 13:27:08;;;;;;;2.00;1.30;;;23.50;58.20;;;;;;5017328;28;20965;-83
2024/02/13 13:29:38;;;;;;;2.90;1.30;;;23.50;58.20;;;;;;5016962;28;20795;-81
2024/02/13 13:32:15;;;;;;;3.30;1.20;;;23.50;58.30;;;;;;5016234;28;20518;-81
2024/02/13 13:34:43;;;;;;;1.63;0.90;;;23.50;58.30;;;;;;5015569;28;20439;-81
2024/02/13 13:37:10;;;;;;;2.73;1.10;;;23.40;58.30;;;;;;5016827;28;20857;-82
2024/02/13 13:39:37;;;;;;;3.10;0.90;;;23.40;58.40;;;;;;5017188;28;20439;-82
2024/02/13 13:42:09;;;;;;;2.00;1.10;;;23.40;58.40;;;;;;5016383;28;20442;-81
2024/02/13 13:44:42;;;;;;;1.60;0.97;;;23.40;58.40;;;;;;5015215;28;20458;-80
2024/02/13 13:47:09;;;;;;;3.83;1.10;;;23.40;58.40;;;;;;5015804;28;20439;-81
2024/02/13 13:49:37;;;;;;;2.43;1.00;;;23.40;58.50;;;;;;5016664;28;20439;-80
2024/02/13 13:52:06;;;;;;;1.70;0.90;;;23.40;59.10;;;;;;5016127;28;20482;-81
2024/02/13 13:54:35;;;;;;;1.83;1.00;;;23.40;58.50;;;;;;5016494;28;20503;-80
2024/02/13 13:57:04;;;;;;;1.97;1.30;;;23.40;58.50;;;;;;5016608;28;20443;-82
2024/02/13 13:59:30;;;;;;;2.40;1.00;;;23.40;58.60;;;;;;5015617;28;20462;-81
2024/02/13 14:01:57;;;;;;;2.53;0.90;;;23.40;58.60;;;;;;5014692;28;20538;-83
2024/02/13 14:04:25;;;;;;;1.97;1.03;;;23.40;58.60;;;;;;5013548;28;20438;-82
2024/02/13 14:06:51;;;;;;;3.23;1.03;;;23.40;58.50;;;;;;5013503;28;20853;-81
2024/02/13 14:09:21;;;;;;;3.70;1.27;;;23.40;58.60;;;;;;5014783;28;20507;-81
2024/02/13 14:11:47;;;;;;;4.70;1.30;;;23.40;58.00;;;;;;5016441;28;20526;-80
2024/02/13 14:14:14;;;;;;;3.53;1.57;;;23.50;58.00;;;;;;5016422;28;20454;-79
2024/02/13 14:16:41;;;;;;;4.50;1.17;;;23.50;57.90;;;;;;5015763;28;20953;-78
2024/02/13 14:19:08;;;;;;;16.27;1.37;;;23.50;58.10;;;;;;5016757;28;20841;-78
2024/02/13 14:21:36;;;;;;;4.80;1.90;;;23.50;58.30;;;;;;5017126;28;20439;-78
2024/02/13 14:24:04;;;;;;;4.73;1.20;;;23.50;58.30;;;;;;5016980;28;20450;-78
2024/02/13 14:26:34;;;;;;;3.87;1.30;;;23.50;58.30;;;;;;5017088;28;20451;-78
2024/02/13 14:29:00;;;;;;;2.60;1.10;;;23.40;58.40;;;;;;5016706;28;20581;-81
2024/02/13 14:31:27;;;;;;;7.30;2.30;;;23.40;57.50;;;;;;5016190;28;20493;-81
2024/02/13 14:33:54;;;;;;;9.17;1.10;;;23.40;57.90;;;;;;5016304;28;20439;-82
2024/02/13 14:36:25;;;;;;;5.97;1.50;;;23.40;57.80;;;;;;5017521;28;20455;-81
2024/02/13 14:38:52;;;;;;;3.07;1.40;;;23.40;57.70;;;;;;5019180;28;20446;-82
2024/02/13 14:41:19;;;;;;;2.87;0.90;;;23.30;57.60;;;;;;5015918;28;20957;-81
2024/02/13 14:43:47;;;;;;;2.33;1.13;;;23.30;57.80;;;;;;5019269;28;20462;-87
2024/02/13 14:46:14;;;;;;;2.93;1.00;;;23.30;57.60;;;;;;5015835;28;20447;-88
2024/02/13 14:48:41;;;;;;;4.20;1.20;;;23.20;57.60;;;;;;5016053;28;20447;-79
2024/02/13 14:51:08;;;;;;;2.70;1.03;;;23.30;57.70;;;;;;5016273;28;20482;-79
2024/02/13 14:53:35;;;;;;;6.40;1.53;;;23.20;57.80;;;;;;5014962;28;20543;-88
2024/02/13 14:56:02;;;;;;;4.63;1.10;;;23.20;54.90;;;;;;5015900;28;20870;-86
2024/02/13 14:58:31;;;;;;;4.73;1.53;;;23.10;53.00;;;;;;5016012;28;20985;-81
2024/02/13 15:01:01;;;;;;;5.93;1.30;;;23.00;55.30;;;;;;5016158;28;20458;-81
2024/02/13 15:03:28;;;;;;;5.93;1.10;;;23.00;57.30;;;;;;5015904;28;20446;-82
2024/02/13 15:05:54;;;;;;;15.33;2.53;;;23.10;57.20;;;;;;5015159;28;20443;-81